sensor_id;sensor_type;location;lat;lon;timestamp;P1;durP1;ratioP1;P2;durP2;ratioP2
73515;SDS011;61763;51.416;5.442;2023-12-04T00:00:24;24.60;;;5.72;;
73515;SDS011;61763;51.416;5.442;2023-12-04T00:02:50;12.60;;;6.03;;
73515;SDS011;61763;51.416;5.442;2023-12-04T00:05:16;12.90;;;4.78;;
73515;SDS011;61763;51.416;5.442;2023-12-04T00:07:42;16.63;;;6.68;;
73515;SDS011;61763;51.416;5.442;2023-12-04T00:10:08;13.02;;;4.53;;
73515;SDS011;61763;51.416;5.442;2023-12-04T00:12:33;15.52;;;4.95;;
73515;SDS011;61763;51.416;5.442;2023-12-04T00:14:59;18.27;;;6.50;;
73515;SDS011;61763;51.416;5.442;2023-12-04T00:17:24;14.90;;;5.97;;
73515;SDS011;61763;51.416;5.442;2023-12-04T00:19:51;18.02;;;5.43;;
73515;SDS011;61763;51.416;5.442;2023-12-04T00:22:19;16.00;;;6.38;;
73515;SDS011;61763;51.416;5.442;2023-12-04T00:24:46;12.73;;;5.90;;
73515;SDS011;61763;51.416;5.442;2023-12-04T00:27:11;17.83;;;6.70;;
73515;SDS011;61763;51.416;5.442;2023-12-04T00:29:38;12.65;;;3.20;;
73515;SDS011;61763;51.416;5.442;2023-12-04T00:32:03;5.47;;;1.92;;
73515;SDS011;61763;51.416;5.442;2023-12-04T00:34:30;11.00;;;4.55;;
73515;SDS011;61763;51.416;5.442;2023-12-04T00:36:56;15.23;;;5.35;;
73515;SDS011;61763;51.416;5.442;2023-12-04T00:39:21;14.07;;;4.93;;
73515;SDS011;61763;51.416;5.442;2023-12-04T00:41:47;19.23;;;5.90;;
73515;SDS011;61763;51.416;5.442;2023-12-04T00:44:12;16.55;;;6.18;;
73515;SDS011;61763;51.416;5.442;2023-12-04T00:46:37;10.50;;;3.67;;
73515;SDS011;61763;51.416;5.442;2023-12-04T00:49:03;10.85;;;5.30;;
73515;SDS011;61763;51.416;5.442;2023-12-04T00:51:28;12.07;;;4.10;;
73515;SDS011;61763;51.416;5.442;2023-12-04T00:53:54;12.30;;;3.63;;
73515;SDS011;61763;51.416;5.442;2023-12-04T00:56:20;12.55;;;5.07;;
73515;SDS011;61763;51.416;5.442;2023-12-04T00:58:46;16.77;;;6.05;;
73515;SDS011;61763;51.416;5.442;2023-12-04T01:01:11;8.65;;;3.65;;
73515;SDS011;61763;51.416;5.442;2023-12-04T01:03:37;21.48;;;6.43;;
73515;SDS011;61763;51.416;5.442;2023-12-04T01:06:03;19.13;;;7.38;;
73515;SDS011;61763;51.416;5.442;2023-12-04T01:08:28;18.23;;;6.43;;
73515;SDS011;61763;51.416;5.442;2023-12-04T01:10:53;14.90;;;5.00;;
73515;SDS011;61763;51.416;5.442;2023-12-04T01:13:19;12.63;;;4.35;;
73515;SDS011;61763;51.416;5.442;2023-12-04T01:15:44;11.35;;;4.45;;
73515;SDS011;61763;51.416;5.442;2023-12-04T01:18:11;15.32;;;5.03;;
73515;SDS011;61763;51.416;5.442;2023-12-04T01:20:37;15.45;;;4.47;;
73515;SDS011;61763;51.416;5.442;2023-12-04T01:23:02;13.60;;;5.15;;
73515;SDS011;61763;51.416;5.442;2023-12-04T01:25:28;8.07;;;3.70;;
73515;SDS011;61763;51.416;5.442;2023-12-04T01:27:53;12.40;;;4.33;;
73515;SDS011;61763;51.416;5.442;2023-12-04T01:30:18;11.13;;;4.68;;
73515;SDS011;61763;51.416;5.442;2023-12-04T01:32:44;17.35;;;5.72;;
73515;SDS011;61763;51.416;5.442;2023-12-04T01:35:09;11.63;;;4.65;;
73515;SDS011;61763;51.416;5.442;2023-12-04T01:37:34;10.35;;;4.22;;
73515;SDS011;61763;51.416;5.442;2023-12-04T01:40:01;2.55;;;0.95;;
73515;SDS011;61763;51.416;5.442;2023-12-04T01:42:27;10.40;;;3.60;;
73515;SDS011;61763;51.416;5.442;2023-12-04T01:44:53;13.35;;;4.50;;
73515;SDS011;61763;51.416;5.442;2023-12-04T01:47:19;17.17;;;6.53;;
73515;SDS011;61763;51.416;5.442;2023-12-04T01:49:45;8.93;;;3.65;;
73515;SDS011;61763;51.416;5.442;2023-12-04T01:52:11;21.48;;;6.45;;
73515;SDS011;61763;51.416;5.442;2023-12-04T01:54:36;13.38;;;5.40;;
73515;SDS011;61763;51.416;5.442;2023-12-04T01:57:02;12.38;;;4.72;;
73515;SDS011;61763;51.416;5.442;2023-12-04T01:59:28;13.10;;;4.63;;
73515;SDS011;61763;51.416;5.442;2023-12-04T02:01:54;13.32;;;3.80;;
73515;SDS011;61763;51.416;5.442;2023-12-04T02:04:21;13.13;;;5.13;;
73515;SDS011;61763;51.416;5.442;2023-12-04T02:06:47;14.70;;;5.13;;
73515;SDS011;61763;51.416;5.442;2023-12-04T02:09:12;11.15;;;4.30;;
73515;SDS011;61763;51.416;5.442;2023-12-04T02:11:39;15.95;;;5.55;;
73515;SDS011;61763;51.416;5.442;2023-12-04T02:14:07;12.80;;;5.35;;
73515;SDS011;61763;51.416;5.442;2023-12-04T02:16:34;11.40;;;4.35;;
73515;SDS011;61763;51.416;5.442;2023-12-04T02:19:05;14.52;;;5.15;;
73515;SDS011;61763;51.416;5.442;2023-12-04T02:21:33;15.02;;;4.57;;
73515;SDS011;61763;51.416;5.442;2023-12-04T02:23:58;15.25;;;4.03;;
73515;SDS011;61763;51.416;5.442;2023-12-04T02:26:27;9.55;;;3.08;;
73515;SDS011;61763;51.416;5.442;2023-12-04T02:28:58;13.38;;;4.53;;
73515;SDS011;61763;51.416;5.442;2023-12-04T02:31:26;10.68;;;2.50;;
73515;SDS011;61763;51.416;5.442;2023-12-04T02:33:55;6.90;;;2.58;;
73515;SDS011;61763;51.416;5.442;2023-12-04T02:36:22;13.07;;;4.05;;
73515;SDS011;61763;51.416;5.442;2023-12-04T02:38:50;9.77;;;2.50;;
73515;SDS011;61763;51.416;5.442;2023-12-04T02:41:15;13.52;;;4.30;;
73515;SDS011;61763;51.416;5.442;2023-12-04T02:43:43;10.75;;;3.58;;
73515;SDS011;61763;51.416;5.442;2023-12-04T02:46:09;12.07;;;4.45;;
73515;SDS011;61763;51.416;5.442;2023-12-04T02:48:34;12.65;;;3.63;;
73515;SDS011;61763;51.416;5.442;2023-12-04T02:51:00;5.95;;;2.70;;
73515;SDS011;61763;51.416;5.442;2023-12-04T02:53:25;11.40;;;3.55;;
73515;SDS011;61763;51.416;5.442;2023-12-04T02:55:51;10.85;;;4.80;;
73515;SDS011;61763;51.416;5.442;2023-12-04T02:58:16;4.80;;;2.80;;
73515;SDS011;61763;51.416;5.442;2023-12-04T03:00:41;7.78;;;2.72;;
73515;SDS011;61763;51.416;5.442;2023-12-04T03:03:07;8.07;;;3.95;;
73515;SDS011;61763;51.416;5.442;2023-12-04T03:05:32;11.90;;;2.80;;
73515;SDS011;61763;51.416;5.442;2023-12-04T03:07:57;8.23;;;3.03;;
73515;SDS011;61763;51.416;5.442;2023-12-04T03:10:23;13.43;;;5.00;;
73515;SDS011;61763;51.416;5.442;2023-12-04T03:12:48;12.93;;;3.85;;
73515;SDS011;61763;51.416;5.442;2023-12-04T03:15:13;6.82;;;2.83;;
73515;SDS011;61763;51.416;5.442;2023-12-04T03:17:40;12.95;;;3.95;;
73515;SDS011;61763;51.416;5.442;2023-12-04T03:20:05;5.47;;;2.80;;
73515;SDS011;61763;51.416;5.442;2023-12-04T03:22:33;9.90;;;4.32;;
73515;SDS011;61763;51.416;5.442;2023-12-04T03:24:59;11.80;;;5.10;;
73515;SDS011;61763;51.416;5.442;2023-12-04T03:27:24;11.48;;;4.22;;
73515;SDS011;61763;51.416;5.442;2023-12-04T03:29:49;5.40;;;1.27;;
73515;SDS011;61763;51.416;5.442;2023-12-04T03:32:15;12.93;;;2.60;;
73515;SDS011;61763;51.416;5.442;2023-12-04T03:34:40;11.40;;;3.03;;
73515;SDS011;61763;51.416;5.442;2023-12-04T03:37:05;9.40;;;3.50;;
73515;SDS011;61763;51.416;5.442;2023-12-04T03:39:31;8.07;;;2.50;;
73515;SDS011;61763;51.416;5.442;2023-12-04T03:41:56;6.88;;;2.70;;
73515;SDS011;61763;51.416;5.442;2023-12-04T03:44:22;13.50;;;4.00;;
73515;SDS011;61763;51.416;5.442;2023-12-04T03:46:47;11.10;;;2.97;;
73515;SDS011;61763;51.416;5.442;2023-12-04T03:49:13;7.70;;;3.47;;
73515;SDS011;61763;51.416;5.442;2023-12-04T03:51:38;8.15;;;3.03;;
73515;SDS011;61763;51.416;5.442;2023-12-04T03:54:04;6.68;;;2.55;;
73515;SDS011;61763;51.416;5.442;2023-12-04T03:56:29;10.00;;;4.80;;
73515;SDS011;61763;51.416;5.442;2023-12-04T03:58:54;8.00;;;2.47;;
73515;SDS011;61763;51.416;5.442;2023-12-04T04:01:19;10.73;;;3.83;;
73515;SDS011;61763;51.416;5.442;2023-12-04T04:03:45;9.52;;;3.92;;
73515;SDS011;61763;51.416;5.442;2023-12-04T04:06:11;11.70;;;3.95;;
73515;SDS011;61763;51.416;5.442;2023-12-04T04:08:36;8.52;;;3.78;;
73515;SDS011;61763;51.416;5.442;2023-12-04T04:11:02;9.80;;;3.40;;
73515;SDS011;61763;51.416;5.442;2023-12-04T04:13:29;4.45;;;2.25;;
73515;SDS011;61763;51.416;5.442;2023-12-04T04:15:54;11.88;;;4.70;;
73515;SDS011;61763;51.416;5.442;2023-12-04T04:18:20;11.63;;;4.90;;
73515;SDS011;61763;51.416;5.442;2023-12-04T04:20:45;4.50;;;1.35;;
73515;SDS011;61763;51.416;5.442;2023-12-04T04:23:10;6.50;;;3.35;;
73515;SDS011;61763;51.416;5.442;2023-12-04T04:25:36;7.38;;;2.90;;
73515;SDS011;61763;51.416;5.442;2023-12-04T04:28:01;10.55;;;4.13;;
73515;SDS011;61763;51.416;5.442;2023-12-04T04:30:26;10.60;;;3.25;;
73515;SDS011;61763;51.416;5.442;2023-12-04T04:32:52;9.52;;;2.58;;
73515;SDS011;61763;51.416;5.442;2023-12-04T04:35:17;8.55;;;3.60;;
73515;SDS011;61763;51.416;5.442;2023-12-04T04:37:42;13.30;;;4.22;;
73515;SDS011;61763;51.416;5.442;2023-12-04T04:40:08;11.75;;;3.97;;
73515;SDS011;61763;51.416;5.442;2023-12-04T04:42:34;12.65;;;4.25;;
73515;SDS011;61763;51.416;5.442;2023-12-04T04:44:59;13.00;;;4.47;;
73515;SDS011;61763;51.416;5.442;2023-12-04T04:47:24;5.72;;;2.28;;
73515;SDS011;61763;51.416;5.442;2023-12-04T04:49:50;6.38;;;3.00;;
73515;SDS011;61763;51.416;5.442;2023-12-04T04:52:15;10.23;;;4.15;;
73515;SDS011;61763;51.416;5.442;2023-12-04T04:54:40;9.45;;;2.97;;
73515;SDS011;61763;51.416;5.442;2023-12-04T04:57:06;10.05;;;1.65;;
73515;SDS011;61763;51.416;5.442;2023-12-04T04:59:31;5.10;;;2.10;;
73515;SDS011;61763;51.416;5.442;2023-12-04T05:01:57;11.35;;;5.30;;
73515;SDS011;61763;51.416;5.442;2023-12-04T05:04:22;5.15;;;1.15;;
73515;SDS011;61763;51.416;5.442;2023-12-04T05:06:48;4.97;;;2.13;;
73515;SDS011;61763;51.416;5.442;2023-12-04T05:09:13;6.82;;;1.55;;
73515;SDS011;61763;51.416;5.442;2023-12-04T05:11:39;10.98;;;4.43;;
73515;SDS011;61763;51.416;5.442;2023-12-04T05:14:04;12.48;;;3.60;;
73515;SDS011;61763;51.416;5.442;2023-12-04T05:16:29;11.65;;;4.50;;
73515;SDS011;61763;51.416;5.442;2023-12-04T05:18:55;5.72;;;1.90;;
73515;SDS011;61763;51.416;5.442;2023-12-04T05:21:20;9.25;;;3.28;;
73515;SDS011;61763;51.416;5.442;2023-12-04T05:23:45;8.80;;;2.83;;
73515;SDS011;61763;51.416;5.442;2023-12-04T05:26:11;5.95;;;1.95;;
73515;SDS011;61763;51.416;5.442;2023-12-04T05:28:36;7.43;;;3.45;;
73515;SDS011;61763;51.416;5.442;2023-12-04T05:31:02;12.82;;;4.43;;
73515;SDS011;61763;51.416;5.442;2023-12-04T05:33:27;10.85;;;3.90;;
73515;SDS011;61763;51.416;5.442;2023-12-04T05:35:53;3.25;;;1.00;;
73515;SDS011;61763;51.416;5.442;2023-12-04T05:38:18;9.88;;;3.28;;
73515;SDS011;61763;51.416;5.442;2023-12-04T05:40:44;2.78;;;1.33;;
73515;SDS011;61763;51.416;5.442;2023-12-04T05:43:10;9.85;;;3.35;;
73515;SDS011;61763;51.416;5.442;2023-12-04T05:45:35;3.97;;;1.40;;
73515;SDS011;61763;51.416;5.442;2023-12-04T05:48:01;6.75;;;1.92;;
73515;SDS011;61763;51.416;5.442;2023-12-04T05:50:26;7.35;;;2.33;;
73515;SDS011;61763;51.416;5.442;2023-12-04T05:52:52;6.47;;;2.17;;
73515;SDS011;61763;51.416;5.442;2023-12-04T05:55:17;7.13;;;2.38;;
73515;SDS011;61763;51.416;5.442;2023-12-04T05:57:43;9.05;;;2.75;;
73515;SDS011;61763;51.416;5.442;2023-12-04T06:00:09;4.07;;;2.20;;
73515;SDS011;61763;51.416;5.442;2023-12-04T06:02:38;5.57;;;2.60;;
73515;SDS011;61763;51.416;5.442;2023-12-04T06:05:07;6.15;;;2.55;;
73515;SDS011;61763;51.416;5.442;2023-12-04T06:07:33;6.78;;;2.58;;
73515;SDS011;61763;51.416;5.442;2023-12-04T06:09:58;8.20;;;1.95;;
73515;SDS011;61763;51.416;5.442;2023-12-04T06:12:24;8.07;;;3.15;;
73515;SDS011;61763;51.416;5.442;2023-12-04T06:14:49;4.53;;;2.00;;
73515;SDS011;61763;51.416;5.442;2023-12-04T06:17:18;7.90;;;2.33;;
73515;SDS011;61763;51.416;5.442;2023-12-04T06:19:45;5.60;;;2.70;;
73515;SDS011;61763;51.416;5.442;2023-12-04T06:22:11;7.75;;;2.95;;
73515;SDS011;61763;51.416;5.442;2023-12-04T06:24:37;6.50;;;2.45;;
73515;SDS011;61763;51.416;5.442;2023-12-04T06:27:02;8.07;;;2.97;;
73515;SDS011;61763;51.416;5.442;2023-12-04T06:29:30;4.65;;;1.48;;
73515;SDS011;61763;51.416;5.442;2023-12-04T06:31:55;5.53;;;2.13;;
73515;SDS011;61763;51.416;5.442;2023-12-04T06:34:21;3.47;;;1.83;;
73515;SDS011;61763;51.416;5.442;2023-12-04T06:36:47;8.38;;;2.85;;
73515;SDS011;61763;51.416;5.442;2023-12-04T06:39:13;6.88;;;1.48;;
73515;SDS011;61763;51.416;5.442;2023-12-04T06:41:40;12.75;;;3.42;;
73515;SDS011;61763;51.416;5.442;2023-12-04T06:44:06;7.95;;;2.50;;
73515;SDS011;61763;51.416;5.442;2023-12-04T06:46:33;6.85;;;2.38;;
73515;SDS011;61763;51.416;5.442;2023-12-04T06:49:02;6.25;;;1.98;;
73515;SDS011;61763;51.416;5.442;2023-12-04T06:53:55;4.07;;;1.70;;
73515;SDS011;61763;51.416;5.442;2023-12-04T06:56:20;5.65;;;2.67;;
73515;SDS011;61763;51.416;5.442;2023-12-04T06:58:46;6.13;;;1.70;;
73515;SDS011;61763;51.416;5.442;2023-12-04T07:01:11;5.35;;;2.53;;
73515;SDS011;61763;51.416;5.442;2023-12-04T07:03:36;7.57;;;3.33;;
73515;SDS011;61763;51.416;5.442;2023-12-04T07:06:02;6.15;;;2.17;;
73515;SDS011;61763;51.416;5.442;2023-12-04T07:08:27;7.38;;;2.72;;
73515;SDS011;61763;51.416;5.442;2023-12-04T07:10:53;5.85;;;2.15;;
73515;SDS011;61763;51.416;5.442;2023-12-04T07:13:18;7.07;;;3.20;;
73515;SDS011;61763;51.416;5.442;2023-12-04T07:15:44;4.93;;;1.83;;
73515;SDS011;61763;51.416;5.442;2023-12-04T07:18:09;2.97;;;1.10;;
73515;SDS011;61763;51.416;5.442;2023-12-04T07:20:34;7.80;;;2.35;;
73515;SDS011;61763;51.416;5.442;2023-12-04T07:23:00;5.40;;;1.50;;
73515;SDS011;61763;51.416;5.442;2023-12-04T07:25:26;5.70;;;2.25;;
73515;SDS011;61763;51.416;5.442;2023-12-04T07:27:51;3.40;;;1.48;;
73515;SDS011;61763;51.416;5.442;2023-12-04T07:30:17;5.53;;;2.25;;
73515;SDS011;61763;51.416;5.442;2023-12-04T07:32:42;6.10;;;2.28;;
73515;SDS011;61763;51.416;5.442;2023-12-04T07:35:07;5.75;;;2.80;;
73515;SDS011;61763;51.416;5.442;2023-12-04T07:37:33;6.97;;;2.83;;
73515;SDS011;61763;51.416;5.442;2023-12-04T07:39:58;3.63;;;1.52;;
73515;SDS011;61763;51.416;5.442;2023-12-04T07:44:52;6.10;;;1.65;;
73515;SDS011;61763;51.416;5.442;2023-12-04T07:47:17;5.38;;;1.83;;
73515;SDS011;61763;51.416;5.442;2023-12-04T07:49:44;4.05;;;2.28;;
73515;SDS011;61763;51.416;5.442;2023-12-04T07:52:09;6.25;;;2.13;;
73515;SDS011;61763;51.416;5.442;2023-12-04T07:54:36;4.22;;;1.63;;
73515;SDS011;61763;51.416;5.442;2023-12-04T07:57:02;4.25;;;1.60;;
73515;SDS011;61763;51.416;5.442;2023-12-04T07:59:27;3.58;;;2.28;;
73515;SDS011;61763;51.416;5.442;2023-12-04T08:01:53;3.72;;;1.48;;
73515;SDS011;61763;51.416;5.442;2023-12-04T08:04:18;3.50;;;1.33;;
73515;SDS011;61763;51.416;5.442;2023-12-04T08:06:43;3.25;;;1.85;;
73515;SDS011;61763;51.416;5.442;2023-12-04T08:09:09;7.05;;;2.63;;
73515;SDS011;61763;51.416;5.442;2023-12-04T08:11:35;3.90;;;1.13;;
73515;SDS011;61763;51.416;5.442;2023-12-04T08:14:02;4.45;;;0.95;;
73515;SDS011;61763;51.416;5.442;2023-12-04T08:16:28;6.72;;;2.17;;
73515;SDS011;61763;51.416;5.442;2023-12-04T08:18:54;5.55;;;2.15;;
73515;SDS011;61763;51.416;5.442;2023-12-04T08:21:19;8.18;;;2.85;;
73515;SDS011;61763;51.416;5.442;2023-12-04T08:23:45;1.80;;;0.80;;
73515;SDS011;61763;51.416;5.442;2023-12-04T08:26:10;9.77;;;2.10;;
73515;SDS011;61763;51.416;5.442;2023-12-04T08:28:37;5.13;;;1.60;;
73515;SDS011;61763;51.416;5.442;2023-12-04T08:31:06;7.03;;;2.92;;
73515;SDS011;61763;51.416;5.442;2023-12-04T08:33:34;6.88;;;1.65;;
73515;SDS011;61763;51.416;5.442;2023-12-04T08:35:59;5.07;;;1.42;;
73515;SDS011;61763;51.416;5.442;2023-12-04T08:38:25;4.10;;;1.25;;
73515;SDS011;61763;51.416;5.442;2023-12-04T08:40:52;4.82;;;1.73;;
73515;SDS011;61763;51.416;5.442;2023-12-04T08:43:19;3.92;;;1.42;;
73515;SDS011;61763;51.416;5.442;2023-12-04T08:45:46;4.82;;;1.80;;
73515;SDS011;61763;51.416;5.442;2023-12-04T08:48:11;7.15;;;2.42;;
73515;SDS011;61763;51.416;5.442;2023-12-04T08:50:37;6.72;;;2.15;;
73515;SDS011;61763;51.416;5.442;2023-12-04T08:53:04;5.70;;;2.20;;
73515;SDS011;61763;51.416;5.442;2023-12-04T08:55:29;5.60;;;2.83;;
73515;SDS011;61763;51.416;5.442;2023-12-04T08:57:55;5.43;;;1.80;;
73515;SDS011;61763;51.416;5.442;2023-12-04T09:00:21;5.50;;;2.30;;
73515;SDS011;61763;51.416;5.442;2023-12-04T09:02:47;5.93;;;2.00;;
73515;SDS011;61763;51.416;5.442;2023-12-04T09:05:13;4.03;;;1.42;;
73515;SDS011;61763;51.416;5.442;2023-12-04T09:07:38;5.80;;;2.25;;
73515;SDS011;61763;51.416;5.442;2023-12-04T09:10:03;3.25;;;1.17;;
73515;SDS011;61763;51.416;5.442;2023-12-04T09:12:30;7.78;;;1.52;;
73515;SDS011;61763;51.416;5.442;2023-12-04T09:14:55;1.30;;;0.40;;
73515;SDS011;61763;51.416;5.442;2023-12-04T09:17:21;6.40;;;2.30;;
73515;SDS011;61763;51.416;5.442;2023-12-04T09:19:46;4.10;;;2.17;;
73515;SDS011;61763;51.416;5.442;2023-12-04T09:22:11;4.40;;;1.25;;
73515;SDS011;61763;51.416;5.442;2023-12-04T09:24:37;2.20;;;0.93;;
73515;SDS011;61763;51.416;5.442;2023-12-04T09:27:02;3.53;;;1.10;;
73515;SDS011;61763;51.416;5.442;2023-12-04T09:29:28;2.75;;;1.52;;
73515;SDS011;61763;51.416;5.442;2023-12-04T09:31:54;1.92;;;1.13;;
73515;SDS011;61763;51.416;5.442;2023-12-04T09:34:20;5.13;;;1.15;;
73515;SDS011;61763;51.416;5.442;2023-12-04T09:36:46;2.85;;;1.02;;
73515;SDS011;61763;51.416;5.442;2023-12-04T09:39:13;4.53;;;1.63;;
73515;SDS011;61763;51.416;5.442;2023-12-04T09:41:39;5.97;;;2.33;;
73515;SDS011;61763;51.416;5.442;2023-12-04T09:44:05;5.32;;;2.00;;
73515;SDS011;61763;51.416;5.442;2023-12-04T09:46:32;6.80;;;2.90;;
73515;SDS011;61763;51.416;5.442;2023-12-04T09:48:59;4.07;;;1.48;;
73515;SDS011;61763;51.416;5.442;2023-12-04T09:51:25;3.88;;;1.20;;
73515;SDS011;61763;51.416;5.442;2023-12-04T09:53:52;3.15;;;1.38;;
73515;SDS011;61763;51.416;5.442;2023-12-04T09:56:20;7.78;;;3.25;;
73515;SDS011;61763;51.416;5.442;2023-12-04T09:58:47;4.38;;;1.65;;
73515;SDS011;61763;51.416;5.442;2023-12-04T10:01:17;4.57;;;2.13;;
73515;SDS011;61763;51.416;5.442;2023-12-04T10:03:43;4.82;;;2.00;;
73515;SDS011;61763;51.416;5.442;2023-12-04T10:06:09;8.73;;;3.00;;
73515;SDS011;61763;51.416;5.442;2023-12-04T10:08:40;5.47;;;1.55;;
73515;SDS011;61763;51.416;5.442;2023-12-04T10:11:05;3.63;;;1.23;;
73515;SDS011;61763;51.416;5.442;2023-12-04T10:13:30;4.90;;;1.65;;
73515;SDS011;61763;51.416;5.442;2023-12-04T10:15:56;7.00;;;3.30;;
73515;SDS011;61763;51.416;5.442;2023-12-04T10:18:28;5.72;;;1.88;;
73515;SDS011;61763;51.416;5.442;2023-12-04T10:20:55;3.70;;;1.15;;
73515;SDS011;61763;51.416;5.442;2023-12-04T10:23:22;6.88;;;2.33;;
73515;SDS011;61763;51.416;5.442;2023-12-04T10:26:00;6.35;;;2.35;;
73515;SDS011;61763;51.416;5.442;2023-12-04T10:28:26;6.97;;;1.90;;
73515;SDS011;61763;51.416;5.442;2023-12-04T10:30:55;4.90;;;1.95;;
73515;SDS011;61763;51.416;5.442;2023-12-04T10:33:20;7.38;;;1.60;;
73515;SDS011;61763;51.416;5.442;2023-12-04T10:35:46;3.42;;;1.63;;
73515;SDS011;61763;51.416;5.442;2023-12-04T10:38:12;6.80;;;2.35;;
73515;SDS011;61763;51.416;5.442;2023-12-04T10:40:39;5.30;;;1.83;;
73515;SDS011;61763;51.416;5.442;2023-12-04T10:45:36;3.42;;;1.40;;
73515;SDS011;61763;51.416;5.442;2023-12-04T10:48:02;8.32;;;4.03;;
73515;SDS011;61763;51.416;5.442;2023-12-04T10:50:31;8.75;;;4.00;;
73515;SDS011;61763;51.416;5.442;2023-12-04T10:53:03;5.95;;;2.58;;
73515;SDS011;61763;51.416;5.442;2023-12-04T10:55:29;8.13;;;3.05;;
73515;SDS011;61763;51.416;5.442;2023-12-04T10:57:56;7.55;;;2.97;;
73515;SDS011;61763;51.416;5.442;2023-12-04T11:00:24;10.50;;;3.13;;
73515;SDS011;61763;51.416;5.442;2023-12-04T11:02:51;6.55;;;3.13;;
73515;SDS011;61763;51.416;5.442;2023-12-04T11:05:20;5.82;;;2.65;;
73515;SDS011;61763;51.416;5.442;2023-12-04T11:10:26;10.82;;;3.72;;
73515;SDS011;61763;51.416;5.442;2023-12-04T11:12:57;11.45;;;3.60;;
73515;SDS011;61763;51.416;5.442;2023-12-04T11:15:29;8.30;;;1.83;;
73515;SDS011;61763;51.416;5.442;2023-12-04T11:18:00;8.88;;;3.70;;
73515;SDS011;61763;51.416;5.442;2023-12-04T11:20:29;9.85;;;3.55;;
73515;SDS011;61763;51.416;5.442;2023-12-04T11:23:00;5.15;;;2.13;;
73515;SDS011;61763;51.416;5.442;2023-12-04T11:27:54;8.13;;;3.03;;
73515;SDS011;61763;51.416;5.442;2023-12-04T11:30:20;5.70;;;2.55;;
73515;SDS011;61763;51.416;5.442;2023-12-04T11:32:46;7.50;;;3.30;;
73515;SDS011;61763;51.416;5.442;2023-12-04T11:35:16;5.85;;;2.47;;
73515;SDS011;61763;51.416;5.442;2023-12-04T11:37:46;4.95;;;1.98;;
73515;SDS011;61763;51.416;5.442;2023-12-04T11:40:14;7.82;;;3.00;;
73515;SDS011;61763;51.416;5.442;2023-12-04T11:42:41;8.65;;;2.50;;
73515;SDS011;61763;51.416;5.442;2023-12-04T11:45:07;9.65;;;4.38;;
73515;SDS011;61763;51.416;5.442;2023-12-04T11:47:51;9.85;;;4.13;;
73515;SDS011;61763;51.416;5.442;2023-12-04T11:50:21;6.35;;;2.70;;
73515;SDS011;61763;51.416;5.442;2023-12-04T11:52:50;3.67;;;1.60;;
73515;SDS011;61763;51.416;5.442;2023-12-04T11:55:25;10.40;;;2.60;;
73515;SDS011;61763;51.416;5.442;2023-12-04T11:57:51;7.45;;;2.90;;
73515;SDS011;61763;51.416;5.442;2023-12-04T12:00:20;7.65;;;3.47;;
73515;SDS011;61763;51.416;5.442;2023-12-04T12:02:48;8.60;;;3.20;;
73515;SDS011;61763;51.416;5.442;2023-12-04T12:05:26;3.03;;;1.55;;
73515;SDS011;61763;51.416;5.442;2023-12-04T12:07:53;6.93;;;1.98;;
73515;SDS011;61763;51.416;5.442;2023-12-04T12:10:20;4.88;;;1.65;;
73515;SDS011;61763;51.416;5.442;2023-12-04T12:12:46;10.77;;;3.75;;
73515;SDS011;61763;51.416;5.442;2023-12-04T12:15:13;9.43;;;4.07;;
73515;SDS011;61763;51.416;5.442;2023-12-04T12:17:39;8.25;;;3.03;;
73515;SDS011;61763;51.416;5.442;2023-12-04T12:20:08;4.00;;;1.75;;
73515;SDS011;61763;51.416;5.442;2023-12-04T12:22:36;7.22;;;2.88;;
73515;SDS011;61763;51.416;5.442;2023-12-04T12:25:06;5.15;;;1.75;;
73515;SDS011;61763;51.416;5.442;2023-12-04T12:27:34;6.88;;;2.53;;
73515;SDS011;61763;51.416;5.442;2023-12-04T12:30:00;9.80;;;2.05;;
73515;SDS011;61763;51.416;5.442;2023-12-04T12:32:26;5.47;;;2.30;;
73515;SDS011;61763;51.416;5.442;2023-12-04T12:34:56;5.05;;;2.60;;
73515;SDS011;61763;51.416;5.442;2023-12-04T12:37:22;6.60;;;3.28;;
73515;SDS011;61763;51.416;5.442;2023-12-04T12:39:47;6.07;;;2.22;;
73515;SDS011;61763;51.416;5.442;2023-12-04T12:42:26;6.93;;;3.05;;
73515;SDS011;61763;51.416;5.442;2023-12-04T12:44:52;5.07;;;2.35;;
73515;SDS011;61763;51.416;5.442;2023-12-04T12:47:18;8.20;;;3.45;;
73515;SDS011;61763;51.416;5.442;2023-12-04T12:49:44;8.77;;;2.28;;
73515;SDS011;61763;51.416;5.442;2023-12-04T12:52:10;4.25;;;1.73;;
73515;SDS011;61763;51.416;5.442;2023-12-04T12:54:42;8.93;;;2.92;;
73515;SDS011;61763;51.416;5.442;2023-12-04T12:57:09;2.78;;;1.33;;
73515;SDS011;61763;51.416;5.442;2023-12-04T12:59:36;6.43;;;2.13;;
73515;SDS011;61763;51.416;5.442;2023-12-04T13:02:03;7.57;;;2.30;;
73515;SDS011;61763;51.416;5.442;2023-12-04T13:07:01;6.53;;;1.75;;
73515;SDS011;61763;51.416;5.442;2023-12-04T13:09:27;4.55;;;2.80;;
73515;SDS011;61763;51.416;5.442;2023-12-04T13:11:53;5.40;;;2.20;;
73515;SDS011;61763;51.416;5.442;2023-12-04T13:14:18;6.97;;;3.35;;
73515;SDS011;61763;51.416;5.442;2023-12-04T13:16:44;6.10;;;2.72;;
73515;SDS011;61763;51.416;5.442;2023-12-04T13:19:09;6.53;;;3.30;;
73515;SDS011;61763;51.416;5.442;2023-12-04T13:21:35;7.85;;;2.10;;
73515;SDS011;61763;51.416;5.442;2023-12-04T13:24:00;6.13;;;2.50;;
73515;SDS011;61763;51.416;5.442;2023-12-04T13:26:25;6.82;;;2.88;;
73515;SDS011;61763;51.416;5.442;2023-12-04T13:28:52;3.85;;;1.65;;
73515;SDS011;61763;51.416;5.442;2023-12-04T13:31:18;6.13;;;2.53;;
73515;SDS011;61763;51.416;5.442;2023-12-04T13:33:46;6.65;;;2.97;;
73515;SDS011;61763;51.416;5.442;2023-12-04T13:36:12;8.05;;;3.58;;
73515;SDS011;61763;51.416;5.442;2023-12-04T13:38:37;6.50;;;2.78;;
73515;SDS011;61763;51.416;5.442;2023-12-04T13:41:03;6.78;;;3.22;;
73515;SDS011;61763;51.416;5.442;2023-12-04T13:44:04;8.02;;;3.38;;
73515;SDS011;61763;51.416;5.442;2023-12-04T13:46:29;5.60;;;2.42;;
73515;SDS011;61763;51.416;5.442;2023-12-04T13:48:55;8.70;;;4.82;;
73515;SDS011;61763;51.416;5.442;2023-12-04T13:51:21;4.45;;;2.30;;
73515;SDS011;61763;51.416;5.442;2023-12-04T13:53:47;9.93;;;3.20;;
73515;SDS011;61763;51.416;5.442;2023-12-04T13:56:15;6.68;;;2.55;;
73515;SDS011;61763;51.416;5.442;2023-12-04T13:58:58;5.10;;;2.75;;
73515;SDS011;61763;51.416;5.442;2023-12-04T14:01:24;6.30;;;2.15;;
73515;SDS011;61763;51.416;5.442;2023-12-04T14:03:53;11.05;;;3.10;;
73515;SDS011;61763;51.416;5.442;2023-12-04T14:06:19;14.02;;;4.25;;
73515;SDS011;61763;51.416;5.442;2023-12-04T14:08:44;5.05;;;2.67;;
73515;SDS011;61763;51.416;5.442;2023-12-04T14:11:11;3.58;;;1.50;;
73515;SDS011;61763;51.416;5.442;2023-12-04T14:13:37;4.45;;;2.25;;
73515;SDS011;61763;51.416;5.442;2023-12-04T14:16:04;5.72;;;2.67;;
73515;SDS011;61763;51.416;5.442;2023-12-04T14:18:29;5.65;;;2.78;;
73515;SDS011;61763;51.416;5.442;2023-12-04T14:20:55;7.85;;;2.88;;
73515;SDS011;61763;51.416;5.442;2023-12-04T14:23:21;9.27;;;3.08;;
73515;SDS011;61763;51.416;5.442;2023-12-04T14:25:47;7.85;;;3.45;;
73515;SDS011;61763;51.416;5.442;2023-12-04T14:28:12;10.38;;;5.00;;
73515;SDS011;61763;51.416;5.442;2023-12-04T14:30:38;7.60;;;4.35;;
73515;SDS011;61763;51.416;5.442;2023-12-04T14:33:03;3.75;;;1.27;;
73515;SDS011;61763;51.416;5.442;2023-12-04T14:35:28;7.85;;;3.85;;
73515;SDS011;61763;51.416;5.442;2023-12-04T14:37:54;10.30;;;3.78;;
73515;SDS011;61763;51.416;5.442;2023-12-04T14:40:20;6.05;;;2.78;;
73515;SDS011;61763;51.416;5.442;2023-12-04T14:42:45;7.95;;;3.80;;
73515;SDS011;61763;51.416;5.442;2023-12-04T14:45:11;6.45;;;4.15;;
73515;SDS011;61763;51.416;5.442;2023-12-04T14:47:38;9.55;;;3.40;;
73515;SDS011;61763;51.416;5.442;2023-12-04T14:50:04;8.85;;;4.53;;
73515;SDS011;61763;51.416;5.442;2023-12-04T14:52:31;9.07;;;4.32;;